Alto, GA

5:24 PM EDT on May 03, 2015 (GMT -0400)
Mud Creek, South Habersham | | Change Station
CLOSE
Current Station
Personal Weather Station
Location: Alto, GA
Elevation: 1348 ft
Nearby Weather Stations

Elev 1348 ft 34.48 °N, 83.63 °W | Updated 4 seconds ago

Partly Cloudy
Partly Cloudy
75.9 °F
Feels Like 76 °F
N
0.0
Wind Variable Wind from South
Gusts 3.8 mph

Today
High -- | Low -- °F
--% Chance of Precip.
Yesterday
High -- | Low -- °F
Precip. -- in
6:42 AM 8:20 PM
Full, 100% visible
Pressure 30.13 in
Visibility 10.0 miles
Clouds Mostly Cloudy 7500 ft
Heat Index 76 °F
Dew Point 23 °F
Humidity 14%
Rainfall 0.00 in
Snow Depth Not available.
UV 3 out of 12
Pollen 8.10 out of 12
Air Quality Not available.
Flu Activity Sporadic
METAR KGVL 032053Z AUTO 24006KT 10SM BKN075 26/07 A3016 RMK AO2 SLP202 T02560072 56014

More Conditions Fewer Conditions

Pressure 30.13 in
Visibility 10.0 miles
Clouds Mostly Cloudy 7500 ft
Heat Index 76 °F
Dew Point 23 °F
Humidity 14%
Rainfall 0.00 in
Snow Depth Not available.
UV 3 out of 12
Pollen 8.10 out of 12
Air Quality Not available.
Flu Activity Sporadic
METAR KGVL 032053Z AUTO 24006KT 10SM BKN075 26/07 A3016 RMK AO2 SLP202 T02560072 56014

More Conditions Fewer Conditions

Nepal has a long way to go to dig out and rebuild from a devastating earthquake. We have teamed up with several charities and organizations to make contributing to the relief effort as easy as possible.
How you can help: Portlight Strategies | Red Cross

10-Day Weather Forecast

Almanac

Astronomy

May. 03, 2015 Rise Set
Actual Time
Civil Twilight
Nautical Twilight
Astronomical Twilight
Moon
Length of Visible Light
Length of Day
Tomorrow will be .
, % of the Moon is Illuminated

Today's Extremes

State Highs State Lows

Community

WunderPhotos

Upload Photos

1,818,374 photos uploaded!

WunderBlogs® & News

Nearby

Air Quality

  Air Quality AQ Index Pollutant
Not available.

Snow Depth

Station Depth Elevation

Earthquake Activity

City Distance Mag. Time & Date
Minimum magnitude displayed is 2.5.

Coastal Water Temperatures

Place Temperature

Stations

Nearby Weather Stations

Station Location Temp. Windchill Dew Point Humidity Wind Precip. Elev Updated Type